createdAt,value
2023-02-11T00:22:07.330Z,85.52
2023-02-11T00:52:11.211Z,85.52
2023-02-11T01:22:15.232Z,84.52
2023-02-11T01:52:23.431Z,84.30
2023-02-11T02:22:43.396Z,83.84
2023-02-11T02:52:59.546Z,84.66
2023-02-11T03:23:09.388Z,85.61
2023-02-11T03:53:14.334Z,86.34
2023-02-11T04:23:18.438Z,85.93
2023-02-11T04:53:22.916Z,88.35
2023-02-11T05:23:27.030Z,88.60
2023-02-11T05:53:31.371Z,90.87
2023-02-11T06:23:35.438Z,92.28
2023-02-11T06:53:42.450Z,91.69
2023-02-11T07:23:46.797Z,90.32
2023-02-11T07:53:52.207Z,88.19
2023-02-11T08:23:57.578Z,91.34
2023-02-11T08:54:02.495Z,93.89
2023-02-11T09:24:09.322Z,96.72
2023-02-11T09:54:18.260Z,96.87
2023-02-11T10:24:22.848Z,96.35
2023-02-11T10:54:26.905Z,96.91
2023-02-11T11:24:34.524Z,94.42
2023-02-11T11:54:39.574Z,92.25
2023-02-11T12:24:53.145Z,89.85
2023-02-11T12:55:00.536Z,86.93
2023-02-11T13:25:11.561Z,87.43
2023-02-11T13:55:24.111Z,88.29
2023-02-11T14:25:28.649Z,89.14
2023-02-11T14:55:35.099Z,90.72
2023-02-11T15:25:51.307Z,91.36
2023-02-11T15:56:02.541Z,91.23
2023-02-11T16:26:09.411Z,91.06
2023-02-11T16:56:16.912Z,92.51
2023-02-11T17:26:21.193Z,94.53
2023-02-11T17:56:26.041Z,95.76
2023-02-11T18:26:30.152Z,96.62
2023-02-11T18:56:34.209Z,96.27
2023-02-11T19:26:38.976Z,93.91
2023-02-11T19:56:44.761Z,93.35
2023-02-11T20:26:49.497Z,93.58
2023-02-11T20:56:55.487Z,92.10
2023-02-11T21:27:00.104Z,94.25
2023-02-11T21:57:05.044Z,94.00
2023-02-11T22:27:09.238Z,93.67
2023-02-11T22:57:13.307Z,94.36
2023-02-11T23:27:17.443Z,94.24
2023-02-11T23:57:21.437Z,93.24
